GIG weather

Rio Galeão – Tom Jobim International Airport
Rio De Janeiro, Rio de Janeiro, Brazil

Public forecast

Using degrees Celsius for public forecast. Weather courtesy of forecast.io.

Current aviation weather report (METAR) for Rio Galeão – Tom Jobim International Airport

Retrieved 2019/10/20 22:00 UTC (47 minutes ago):

SBGL 202200Z 20005KT 9999 SCT030 OVC050 22/15 Q1015

Aviation forecast (TAF) for Rio Galeão – Tom Jobim International Airport

Retrieved 2019/10/20 18:00 UTC (5 hours ago):

TAF SBGL 201500Z 2018/2124 20010KT 8000 SCT017 BKN030 TN21/2108Z TX26/2116Z BECMG 2102/2104 27005KT SCT015 SCT030 PROB30 2108/2110 31005KT 5000 BR FEW010 SCT030 BECMG 2113/2115 18010KT SCT025 BECMG 2116/2118 14010KT FEW020 BECMG 2121/2123 10005KT RMK PHD